Time;durP1;ratioP1;P1;durP2;ratioP2;P2;SDS_P1;SDS_P2;PMS_P1;PMS_P2;Temp;Humidity;BMP_temperature;BMP_pressure;BME280_temperature;BME280_humidity;BME280_pressure;Samples;Min_cycle;Max_cycle;Signal;HPM_P1;HPM_P2
2022/03/26 00:01:28;;;;;;;55.63;27.70;;;;;;;7.68;55.69;101555.63;20928946;28;20057;-84
2022/03/26 00:11:30;;;;;;;53.38;25.50;;;;;;;7.69;55.00;101554.78;20937543;28;20048;-84
2022/03/26 00:21:32;;;;;;;57.22;24.95;;;;;;;7.72;54.62;101563.53;20933804;28;20048;-84
2022/03/26 00:31:37;;;;;;;50.88;23.83;;;;;;;7.60;55.46;101573.75;20944514;28;20045;-84
2022/03/26 00:41:39;;;;;;;50.28;23.80;;;;;;;7.43;55.46;101572.63;20935770;28;20045;-84
2022/03/26 00:51:41;;;;;;;52.85;24.17;;;;;;;7.50;55.03;101571.00;21009059;28;20060;-83
2022/03/26 01:01:42;;;;;;;46.85;23.02;;;;;;;7.56;54.05;101560.66;21024145;28;20037;-84
2022/03/26 01:11:44;;;;;;;48.50;23.10;;;;;;;7.48;54.59;101562.28;20929616;28;20475;-83
2022/03/26 01:21:46;;;;;;;48.08;23.08;;;;;;;7.42;54.24;101571.72;20921243;28;20060;-84
2022/03/26 01:31:47;;;;;;;47.65;19.88;;;;;;;7.39;53.50;101574.31;20952473;28;20048;-84
2022/03/26 01:41:49;;;;;;;42.50;19.13;;;;;;;7.46;52.54;101560.50;20967813;28;20045;-84
2022/03/26 01:51:51;;;;;;;39.42;18.80;;;;;;;7.45;52.27;101556.16;20953578;28;20484;-84
2022/03/26 02:01:54;;;;;;;37.72;18.27;;;;;;;7.25;52.64;101560.19;20974027;28;20041;-84
2022/03/26 02:11:56;;;;;;;44.00;17.83;;;;;;;6.93;53.40;101564.84;20922144;28;20048;-84
2022/03/26 02:21:57;;;;;;;35.60;17.48;;;;;;;6.77;54.26;101566.28;20956174;28;20114;-83
2022/03/26 02:31:59;;;;;;;37.83;17.50;;;;;;;6.64;53.84;101556.50;20947032;28;20041;-84
2022/03/26 02:42:01;;;;;;;31.92;15.48;;;;;;;6.52;54.48;101553.69;20928839;28;20051;-84
2022/03/26 02:52:03;;;;;;;40.50;16.90;;;;;;;6.35;55.23;101549.00;20937682;28;20106;-84
2022/03/26 03:02:09;;;;;;;34.10;16.02;;;;;;;6.25;55.04;101554.88;20984660;28;20424;-83
2022/03/26 03:12:11;;;;;;;39.50;15.57;;;;;;;6.16;55.43;101570.28;20958330;28;20521;-84
2022/03/26 03:22:13;;;;;;;33.67;15.90;;;;;;;6.12;55.19;101558.06;20959821;28;20048;-84
2022/03/26 03:32:15;;;;;;;32.10;14.93;;;;;;;6.12;54.93;101552.84;20963346;28;20413;-84
2022/03/26 03:42:17;;;;;;;36.55;15.43;;;;;;;6.03;55.32;101557.84;20960273;28;20580;-83
2022/03/26 03:52:19;;;;;;;37.08;16.17;;;;;;;6.00;56.15;101557.81;20917498;28;20045;-84
2022/03/26 04:02:20;;;;;;;35.60;15.40;;;;;;;5.81;56.23;101546.97;20936641;28;20584;-84
2022/03/26 04:12:22;;;;;;;33.58;15.55;;;;;;;5.72;57.15;101556.28;20921479;28;20045;-84
2022/03/26 04:22:23;;;;;;;40.00;15.90;;;;;;;5.60;57.54;101552.53;20943889;28;20044;-86
2022/03/26 04:32:25;;;;;;;38.40;15.57;;;;;;;5.52;58.23;101554.09;21019823;28;20037;-83
2022/03/26 04:42:27;;;;;;;32.63;15.35;;;;;;;5.32;59.17;101560.56;21002903;28;20147;-83
2022/03/26 04:52:28;;;;;;;35.33;15.38;;;;;;;5.21;59.72;101562.88;20952961;28;20045;-84
2022/03/26 05:02:30;;;;;;;38.63;16.65;;;;;;;5.09;59.86;101572.97;20924976;28;20094;-83
2022/03/26 05:12:31;;;;;;;36.22;16.30;;;;;;;4.93;61.76;101586.38;20915268;28;20118;-85
2022/03/26 05:22:33;;;;;;;36.05;15.52;;;;;;;4.97;61.32;101589.06;20904035;28;20084;-84
2022/03/26 05:32:34;;;;;;;41.10;17.88;;;;;;;4.97;61.42;101596.00;20944351;28;20102;-84
2022/03/26 05:42:36;;;;;;;43.42;16.48;;;;;;;5.00;61.08;101603.88;20968084;28;20053;-84
2022/03/26 05:52:39;;;;;;;36.55;17.15;;;;;;;5.06;61.32;101624.78;20969274;28;20056;-83
2022/03/26 06:02:42;;;;;;;41.75;16.30;;;;;;;5.17;61.40;101644.09;20964063;28;20040;-84
2022/03/26 06:12:44;;;;;;;36.22;16.75;;;;;;;5.32;61.11;101656.63;20919265;28;20053;-83
2022/03/26 06:22:46;;;;;;;37.60;16.92;;;;;;;5.54;59.63;101663.25;20974515;28;20049;-84
2022/03/26 06:32:47;;;;;;;37.97;16.83;;;;;;;5.69;59.33;101663.63;20947282;28;20555;-83
2022/03/26 06:42:49;;;;;;;38.60;16.83;;;;;;;5.90;58.85;101678.88;20935707;28;20049;-83
2022/03/26 06:52:51;;;;;;;36.30;16.50;;;;;;;6.14;58.53;101665.59;20984259;28;20044;-83
2022/03/26 07:02:52;;;;;;;42.75;18.58;;;;;;;6.46;57.72;101691.41;20959224;28;20041;-84
2022/03/26 07:12:54;;;;;;;40.33;17.92;;;;;;;6.75;57.54;101682.50;20964036;28;20068;-83
2022/03/26 07:22:56;;;;;;;42.60;18.02;;;;;;;7.10;56.44;101684.94;20964759;28;20106;-85
2022/03/26 07:32:57;;;;;;;41.40;19.80;;;;;;;7.54;55.76;101688.34;20941454;28;20435;-84
2022/03/26 07:42:59;;;;;;;37.33;17.95;;;;;;;7.90;54.95;101697.63;20993366;28;20045;-84
2022/03/26 07:53:00;;;;;;;39.58;19.65;;;;;;;8.27;53.29;101704.28;20970697;28;20041;-83
2022/03/26 08:03:02;;;;;;;40.17;18.48;;;;;;;8.74;51.56;101697.13;21029981;28;20434;-85
2022/03/26 08:13:04;;;;;;;38.25;18.58;;;;;;;9.16;50.60;101695.03;21062279;28;20040;-82
2022/03/26 08:23:06;;;;;;;40.67;18.55;;;;;;;9.48;48.43;101690.09;20949680;28;20109;-83
2022/03/26 08:33:07;;;;;;;43.40;18.48;;;;;;;9.70;48.21;101696.41;20918773;28;20049;-84
2022/03/26 08:43:10;;;;;;;34.88;17.92;;;;;;;9.92;48.30;101694.84;20941243;28;20045;-84
2022/03/26 08:53:11;;;;;;;35.58;17.65;;;;;;;10.23;48.63;101690.69;20901665;28;20040;-84
2022/03/26 09:03:14;;;;;;;37.65;19.33;;;;;;;10.50;47.31;101703.13;20920984;28;20075;-84
2022/03/26 09:13:16;;;;;;;43.47;18.83;;;;;;;10.81;46.69;101691.03;20935736;28;20079;-84
2022/03/26 09:23:18;;;;;;;40.72;19.00;;;;;;;11.53;45.18;101689.44;20949128;28;20568;-84
2022/03/26 09:33:19;;;;;;;39.42;19.77;;;;;;;11.87;44.42;101678.13;20948477;28;20033;-86
2022/03/26 09:43:22;;;;;;;47.03;21.92;;;;;;;12.30;44.07;101677.19;20960088;28;20113;-84
2022/03/26 09:53:25;;;;;;;41.70;20.52;;;;;;;12.63;43.99;101675.34;20976588;28;20106;-86
2022/03/26 10:03:27;;;;;;;44.88;20.80;;;;;;;12.82;42.99;101669.13;20947485;28;20082;-87
2022/03/26 10:13:34;;;;;;;41.78;21.83;;;;;;;13.44;41.16;101668.81;20992163;28;20045;-87
2022/03/26 10:23:36;;;;;;;45.93;23.20;;;;;;;14.02;40.44;101653.38;20919524;28;1064509;-86
2022/03/26 10:33:38;;;;;;;40.63;22.02;;;;;;;14.34;40.01;101639.00;20911221;28;20053;-86
2022/03/26 10:43:43;;;;;;;50.45;23.45;;;;;;;14.43;39.85;101636.25;20962248;28;20056;-85
2022/03/26 10:53:54;;;;;;;48.95;23.85;;;;;;;14.42;38.02;101621.34;20978541;28;20140;-85
2022/03/26 11:03:56;;;;;;;48.38;23.85;;;;;;;15.02;37.80;101608.25;20940677;28;20045;-84
2022/03/26 11:14:28;;;;;;;47.13;24.35;;;;;;;15.39;37.06;101607.69;20932560;28;20048;-84
2022/03/26 11:24:42;;;;;;;50.55;24.45;;;;;;;15.69;37.00;101585.19;20958202;28;20098;-85
2022/03/26 11:34:46;;;;;;;45.78;24.15;;;;;;;15.96;35.47;101589.13;21003737;28;20071;-85
2022/03/26 11:50:41;;;;;;;42.97;22.98;;;;;;;16.00;33.70;101569.66;20927565;28;20129;-86
2022/03/26 11:55:19;;;;;;;43.47;21.75;;;;;;;16.39;31.13;101560.06;20972080;28;20049;-85
2022/03/26 12:15:58;;;;;;;42.22;21.35;;;;;;;16.91;30.04;101539.50;20962218;28;20053;-85
2022/03/26 12:26:03;;;;;;;39.97;21.55;;;;;;;16.99;29.72;101526.13;20910751;28;20494;-85
2022/03/26 12:36:05;;;;;;;33.83;19.37;;;;;;;17.27;27.96;101516.56;20937829;28;20102;-85
2022/03/26 12:46:10;;;;;;;31.42;17.58;;;;;;;17.47;26.56;101507.25;20923985;28;20322;-85
2022/03/26 12:56:12;;;;;;;28.05;16.67;;;;;;;17.69;25.39;101503.13;20905734;28;20076;-85
2022/03/26 13:06:17;;;;;;;35.67;19.75;;;;;;;17.48;27.73;101496.59;20955873;28;20379;-85
2022/03/26 13:16:22;;;;;;;40.47;20.42;;;;;;;17.55;27.14;101471.72;20976964;28;20198;-85
2022/03/26 13:26:43;;;;;;;32.05;17.80;;;;;;;17.74;24.57;101458.84;20943648;28;20087;-85
2022/03/26 13:36:46;;;;;;;30.02;15.23;;;;;;;18.01;24.33;101456.31;20959703;28;20105;-85
2022/03/26 13:46:50;;;;;;;27.20;15.80;;;;;;;17.89;23.93;101455.75;20938425;28;20053;-84
2022/03/26 13:56:55;;;;;;;29.27;15.10;;;;;;;17.86;23.75;101439.94;20939136;28;20044;-86
2022/03/26 14:06:56;;;;;;;26.73;15.43;;;;;;;18.00;23.13;101439.53;20936462;28;20044;-85
2022/03/26 14:16:58;;;;;;;23.98;13.07;;;;;;;17.73;24.07;101424.44;20916693;28;20094;-85
2022/03/26 14:27:00;;;;;;;28.02;13.80;;;;;;;17.73;24.10;101416.50;20944636;28;20059;-85
2022/03/26 14:37:01;;;;;;;20.95;12.93;;;;;;;17.74;21.91;101410.31;20942883;28;20041;-85
2022/03/26 14:47:03;;;;;;;23.52;12.90;;;;;;;17.76;22.89;101411.13;21067408;28;20032;-85
2022/03/26 14:57:05;;;;;;;25.70;12.10;;;;;;;17.37;22.97;101411.31;20990863;28;20053;-85
2022/03/26 15:07:06;;;;;;;23.90;13.00;;;;;;;17.80;22.75;101394.22;20931490;28;20136;-86
2022/03/26 15:17:08;;;;;;;23.83;14.05;;;;;;;18.02;21.30;101390.03;20918518;28;20102;-85
2022/03/26 15:27:11;;;;;;;27.52;13.23;;;;;;;17.78;21.96;101396.94;20920180;28;20052;-86
2022/03/26 15:37:12;;;;;;;20.73;11.88;;;;;;;17.78;22.41;101393.41;20897807;28;20048;-85
2022/03/26 15:47:14;;;;;;;22.02;11.15;;;;;;;17.78;22.48;101388.13;20959012;28;20425;-86
2022/03/26 15:57:15;;;;;;;23.67;10.68;;;;;;;17.75;22.35;101390.84;20925736;28;20114;-85
2022/03/26 16:07:17;;;;;;;18.13;10.10;;;;;;;17.73;21.38;101392.66;20922392;28;20052;-85
2022/03/26 16:17:18;;;;;;;22.40;11.10;;;;;;;17.52;22.47;101402.06;20968222;28;20048;-85
2022/03/26 16:27:20;;;;;;;21.75;9.88;;;;;;;17.11;24.84;101399.66;20927107;28;20464;-84
2022/03/26 16:37:21;;;;;;;19.23;8.95;;;;;;;17.03;23.90;101406.94;20980120;28;20463;-85
2022/03/26 16:47:23;;;;;;;18.38;9.23;;;;;;;17.04;22.46;101400.72;20933280;28;20437;-82
2022/03/26 16:57:24;;;;;;;17.40;8.60;;;;;;;16.57;24.32;101408.06;20947481;28;20048;-82
2022/03/26 17:07:26;;;;;;;23.20;9.45;;;;;;;16.38;24.75;101406.75;20955123;28;20071;-82
2022/03/26 17:17:27;;;;;;;20.27;8.30;;;;;;;16.27;24.86;101411.44;20969045;28;20091;-85
2022/03/26 17:27:29;;;;;;;19.52;8.48;;;;;;;15.96;25.43;101413.91;20939412;28;20196;-84
2022/03/26 17:37:30;;;;;;;20.85;9.13;;;;;;;15.74;26.13;101418.78;20963240;28;20055;-85
2022/03/26 17:47:33;;;;;;;18.67;8.80;;;;;;;15.44;26.57;101423.72;20974809;28;20386;-84
2022/03/26 17:57:35;;;;;;;25.42;12.40;;;;;;;14.98;28.12;101435.13;20937765;28;20124;-85
2022/03/26 18:07:37;;;;;;;17.92;9.18;;;;;;;14.57;28.05;101439.31;20959556;28;20071;-84
2022/03/26 18:17:39;;;;;;;18.88;9.15;;;;;;;14.11;29.54;101453.13;20982064;28;20053;-84
2022/03/26 18:27:40;;;;;;;26.20;11.80;;;;;;;13.68;30.98;101465.94;20954604;28;20048;-84
2022/03/26 18:37:42;;;;;;;18.48;8.82;;;;;;;13.25;32.01;101476.06;20948128;28;20037;-84
2022/03/26 18:47:44;;;;;;;18.25;7.60;;;;;;;12.93;32.97;101481.56;20956087;28;20476;-84
2022/03/26 18:57:45;;;;;;;22.05;7.68;;;;;;;12.59;33.95;101490.56;20966354;28;20094;-84
2022/03/26 19:07:47;;;;;;;17.52;7.55;;;;;;;12.33;34.15;101500.34;20937593;28;20467;-83
2022/03/26 19:17:50;;;;;;;21.13;10.45;;;;;;;12.35;34.26;101519.59;20947100;28;20044;-84
2022/03/26 19:27:51;;;;;;;30.58;14.35;;;;;;;12.45;34.14;101505.53;20983438;28;20527;-85
2022/03/26 19:37:55;;;;;;;64.57;38.40;;;;;;;12.19;35.41;101523.19;20987347;28;20045;-82
2022/03/26 19:47:57;;;;;;;43.40;26.50;;;;;;;11.64;36.89;101528.56;20956788;28;20045;-85
2022/03/26 19:57:58;;;;;;;22.45;13.15;;;;;;;11.70;36.92;101528.56;20954807;28;20152;-85
2022/03/26 20:08:00;;;;;;;24.42;12.65;;;;;;;11.66;36.85;101532.94;20935779;28;20037;-85
2022/03/26 20:28:22;;;;;;;29.27;11.77;;;;;;;11.32;37.84;101542.59;20949664;28;20052;-85
2022/03/26 20:38:27;;;;;;;28.08;13.70;;;;;;;11.35;38.24;101547.81;20937681;28;20097;-85
2022/03/26 20:48:29;;;;;;;31.20;14.18;;;;;;;11.01;39.63;101567.91;20965247;28;20559;-85
2022/03/26 20:58:31;;;;;;;33.53;16.67;;;;;;;10.45;41.04;101577.41;20992115;28;20203;-83
2022/03/26 21:08:32;;;;;;;31.13;14.70;;;;;;;10.15;42.28;101593.81;21044093;28;20045;-85
2022/03/26 21:18:34;;;;;;;37.00;15.07;;;;;;;9.89;43.57;101609.34;20949874;28;20045;-84
2022/03/26 21:28:35;;;;;;;27.17;11.40;;;;;;;10.09;43.14;101613.84;20950442;28;20094;-84
2022/03/26 21:38:38;;;;;;;22.92;9.68;;;;;;;10.20;43.23;101612.16;20952519;28;20041;-85
2022/03/26 21:48:39;;;;;;;27.02;10.48;;;;;;;9.89;45.07;101611.97;20929060;28;20836;-84
2022/03/26 21:58:45;;;;;;;26.88;10.25;;;;;;;9.60;46.15;101618.75;20944014;28;20107;-84
2022/03/26 22:08:47;;;;;;;23.40;10.02;;;;;;;9.50;47.20;101623.03;20966173;28;20148;-85
2022/03/26 22:18:50;;;;;;;24.98;11.73;;;;;;;9.51;47.92;101619.53;20966050;28;20108;-85
2022/03/26 22:28:51;;;;;;;27.30;12.45;;;;;;;9.46;48.74;101616.88;20957655;28;20501;-85
2022/03/26 22:38:53;;;;;;;26.85;12.38;;;;;;;9.30;49.88;101616.75;20960567;28;20055;-84
2022/03/26 22:48:58;;;;;;;30.13;13.07;;;;;;;9.21;51.13;101620.16;20942888;28;20052;-85
2022/03/26 22:59:00;;;;;;;25.38;11.68;;;;;;;8.86;52.81;101622.38;20922701;28;20052;-85
2022/03/26 23:09:01;;;;;;;26.80;12.55;;;;;;;8.71;53.92;101617.88;20932450;28;20498;-84
2022/03/26 23:19:03;;;;;;;32.60;14.07;;;;;;;8.62;55.67;101610.81;20967397;28;20642;-85
2022/03/26 23:29:05;;;;;;;34.63;14.25;;;;;;;8.73;55.84;101611.81;20949367;28;20052;-84
2022/03/26 23:39:06;;;;;;;28.65;12.85;;;;;;;8.45;57.10;101615.84;20964306;28;20037;-85
2022/03/26 23:49:10;;;;;;;33.33;13.85;;;;;;;8.17;60.06;101630.22;20953405;28;20098;-85
2022/03/26 23:59:12;;;;;;;30.10;13.48;;;;;;;8.00;61.62;101623.00;20935710;28;20095;-85
